Time;durP1;ratioP1;P1;durP2;ratioP2;P2;SDS_P1;SDS_P2;PMS_P1;PMS_P2;Temp;Humidity;BMP_temperature;BMP_pressure;BME280_temperature;BME280_humidity;BME280_pressure;Samples;Min_cycle;Max_cycle;Signal;HPM_P1;HPM_P2
2023/06/02 00:01:19;;;;;;;4.03;3.50;;;16.80;99.90;;;;;;5053673;28;20176;-38
2023/06/02 00:03:45;;;;;;;6.33;4.30;;;16.70;99.90;;;;;;5070142;28;20299;-39
2023/06/02 00:06:14;;;;;;;4.77;4.27;;;16.50;99.90;;;;;;5070368;28;20238;-38
2023/06/02 00:08:40;;;;;;;5.23;4.57;;;16.40;99.90;;;;;;5053551;28;20188;-40
2023/06/02 00:11:08;;;;;;;5.77;4.80;;;16.30;99.90;;;;;;5053099;28;20177;-36
2023/06/02 00:13:35;;;;;;;5.97;4.30;;;16.20;99.90;;;;;;5069983;28;20193;-38
2023/06/02 00:16:01;;;;;;;5.70;4.77;;;16.10;99.90;;;;;;5053428;28;20239;-36
2023/06/02 00:18:27;;;;;;;5.97;4.87;;;16.10;99.90;;;;;;5053436;28;20271;-39
2023/06/02 00:20:53;;;;;;;6.33;4.63;;;16.10;99.90;;;;;;5070020;28;20205;-38
2023/06/02 00:23:19;;;;;;;7.57;4.73;;;16.10;99.90;;;;;;5036735;28;20213;-39
2023/06/02 00:25:45;;;;;;;5.03;4.23;;;16.10;99.90;;;;;;5053267;28;20193;-38
2023/06/02 00:28:11;;;;;;;6.87;4.90;;;16.10;99.90;;;;;;5053310;28;20552;-36
2023/06/02 00:30:37;;;;;;;7.23;4.33;;;16.20;99.90;;;;;;5070814;28;20262;-38
2023/06/02 00:33:04;;;;;;;8.33;4.73;;;16.20;99.90;;;;;;5053257;28;20284;-39
2023/06/02 00:35:30;;;;;;;6.50;4.70;;;16.20;99.90;;;;;;5053028;28;20294;-35
2023/06/02 00:37:56;;;;;;;5.13;4.30;;;16.10;99.90;;;;;;5070117;28;20177;-38
2023/06/02 00:40:23;;;;;;;6.13;4.50;;;16.00;99.90;;;;;;5053399;28;20181;-38
2023/06/02 00:42:49;;;;;;;4.97;4.30;;;15.90;99.90;;;;;;5053587;28;20181;-37
2023/06/02 00:45:16;;;;;;;8.03;4.77;;;15.90;99.90;;;;;;5053319;28;20235;-39
2023/06/02 00:47:42;;;;;;;5.20;4.63;;;15.90;99.90;;;;;;5053182;28;20197;-38
2023/06/02 00:50:08;;;;;;;6.40;5.30;;;15.80;99.90;;;;;;5070037;28;20189;-34
2023/06/02 00:52:34;;;;;;;7.43;4.50;;;15.80;99.90;;;;;;5052732;28;20185;-33
2023/06/02 00:55:02;;;;;;;5.10;4.47;;;15.70;99.90;;;;;;5052911;28;20212;-36
2023/06/02 00:57:28;;;;;;;5.43;4.40;;;15.70;99.90;;;;;;5052997;28;20181;-36
2023/06/02 00:59:58;;;;;;;5.90;4.43;;;15.70;99.90;;;;;;5053011;28;20177;-37
2023/06/02 01:02:24;;;;;;;6.57;4.40;;;15.70;99.90;;;;;;5052948;28;20268;-37
2023/06/02 01:04:51;;;;;;;5.80;3.97;;;15.70;99.90;;;;;;5069479;28;20201;-38
2023/06/02 01:07:24;;;;;;;5.97;4.17;;;15.70;99.90;;;;;;5053188;28;20177;-39
2023/06/02 01:09:54;;;;;;;7.40;4.50;;;15.70;99.90;;;;;;5052987;28;20181;-37
2023/06/02 01:12:20;;;;;;;6.27;4.50;;;15.60;99.90;;;;;;5069510;28;20181;-36
2023/06/02 01:14:47;;;;;;;6.50;4.20;;;15.60;99.90;;;;;;5052805;28;20224;-37
2023/06/02 01:17:13;;;;;;;6.77;4.27;;;15.60;99.90;;;;;;5052921;28;20169;-34
2023/06/02 01:19:40;;;;;;;6.70;4.43;;;15.60;99.90;;;;;;5052798;28;20173;-38
2023/06/02 01:22:10;;;;;;;4.93;4.43;;;15.50;99.90;;;;;;5068913;28;20268;-35
2023/06/02 01:24:38;;;;;;;5.33;4.20;;;15.50;99.90;;;;;;5052594;28;20205;-38
2023/06/02 01:27:11;;;;;;;5.93;4.23;;;15.40;99.90;;;;;;5052731;28;20181;-36
2023/06/02 01:29:39;;;;;;;5.70;4.27;;;15.40;99.90;;;;;;5052037;28;20212;-35
2023/06/02 01:32:41;;;;;;;6.20;4.10;;;15.40;99.90;;;;;;5052803;28;20284;-35
2023/06/02 01:35:11;;;;;;;6.23;4.10;;;15.40;99.90;;;;;;5036972;28;20213;-36
2023/06/02 01:37:43;;;;;;;4.93;4.13;;;15.40;99.90;;;;;;5014708;28;20209;-34
2023/06/02 01:40:11;;;;;;;6.37;4.00;;;15.40;99.90;;;;;;5032660;28;20198;-38
2023/06/02 01:42:38;;;;;;;5.53;4.17;;;15.40;99.90;;;;;;5040844;28;20178;-34
2023/06/02 01:45:06;;;;;;;5.13;3.73;;;15.30;99.90;;;;;;5019015;28;20218;-36
2023/06/02 01:47:32;;;;;;;5.83;4.03;;;15.30;99.90;;;;;;5012871;28;20167;-38
2023/06/02 01:49:58;;;;;;;5.40;4.23;;;15.30;99.90;;;;;;5025788;28;20193;-33
2023/06/02 01:52:24;;;;;;;7.37;4.57;;;15.30;99.90;;;;;;5030410;28;20182;-35
2023/06/02 01:54:51;;;;;;;6.27;4.47;;;15.20;99.90;;;;;;5065374;28;20205;-36
2023/06/02 01:57:17;;;;;;;6.13;4.53;;;15.30;99.90;;;;;;5032603;28;20224;-36
2023/06/02 01:59:43;;;;;;;5.03;4.53;;;15.30;99.90;;;;;;5033677;28;20185;-36
2023/06/02 02:02:08;;;;;;;7.10;4.97;;;15.20;99.90;;;;;;5024454;28;20194;-37
2023/06/02 02:04:34;;;;;;;7.10;4.40;;;15.20;99.90;;;;;;5050489;28;20221;-35
2023/06/02 02:07:01;;;;;;;6.77;4.83;;;15.20;99.90;;;;;;5052423;28;20649;-35
2023/06/02 02:09:27;;;;;;;7.70;4.60;;;15.10;99.90;;;;;;5052599;28;20190;-39
2023/06/02 02:11:53;;;;;;;8.10;5.53;;;15.10;99.90;;;;;;5052383;28;20185;-35
2023/06/02 02:14:24;;;;;;;6.10;4.37;;;15.00;99.90;;;;;;5036274;28;20202;-35
2023/06/02 02:16:51;;;;;;;6.07;4.80;;;14.90;99.90;;;;;;5041042;28;20183;-36
2023/06/02 02:19:18;;;;;;;6.43;4.73;;;14.90;99.90;;;;;;5016000;28;20190;-39
2023/06/02 02:21:44;;;;;;;6.87;4.20;;;14.70;99.90;;;;;;5037379;28;20662;-36
2023/06/02 02:24:10;;;;;;;5.77;4.70;;;14.70;99.90;;;;;;5046955;28;20201;-37
2023/06/02 02:26:36;;;;;;;6.03;4.90;;;14.70;99.90;;;;;;5052753;28;20222;-36
2023/06/02 02:29:02;;;;;;;6.10;5.03;;;14.60;99.90;;;;;;5029075;28;20213;-37
2023/06/02 02:31:28;;;;;;;5.33;4.37;;;14.50;99.90;;;;;;5043491;28;20178;-37
2023/06/02 02:33:54;;;;;;;5.63;4.30;;;14.50;99.90;;;;;;5034603;28;20213;-40
2023/06/02 02:36:21;;;;;;;8.23;4.73;;;14.40;99.90;;;;;;5031694;28;20179;-38
2023/06/02 02:38:47;;;;;;;7.17;4.77;;;14.40;99.90;;;;;;5035385;28;20197;-38
2023/06/02 02:41:14;;;;;;;6.53;4.80;;;14.30;99.90;;;;;;5051818;28;20177;-36
2023/06/02 02:43:40;;;;;;;5.47;4.67;;;14.30;99.90;;;;;;5035062;28;20198;-36
2023/06/02 02:46:06;;;;;;;5.80;4.80;;;14.30;99.90;;;;;;5042091;28;20281;-38
2023/06/02 02:48:35;;;;;;;5.33;4.53;;;14.30;99.90;;;;;;5028553;28;20177;-38
2023/06/02 02:51:03;;;;;;;5.87;4.73;;;14.30;99.90;;;;;;5034769;28;20185;-36
2023/06/02 02:53:31;;;;;;;7.53;4.67;;;14.30;99.90;;;;;;5036542;28;20205;-37
2023/06/02 02:55:58;;;;;;;6.00;4.17;;;14.40;99.90;;;;;;5071514;28;20279;-34
2023/06/02 02:58:26;;;;;;;4.97;3.90;;;14.40;99.90;;;;;;5048222;28;20278;-34
2023/06/02 03:00:53;;;;;;;8.57;5.00;;;14.40;99.90;;;;;;5034999;28;20188;-37
2023/06/02 03:03:20;;;;;;;8.20;4.73;;;14.40;99.90;;;;;;5026758;28;20272;-37
2023/06/02 03:05:49;;;;;;;7.17;4.67;;;14.40;99.90;;;;;;5034859;28;20188;-39
2023/06/02 03:08:17;;;;;;;6.63;4.50;;;14.40;99.90;;;;;;5051085;28;20724;-37
2023/06/02 03:10:45;;;;;;;7.80;4.30;;;14.40;99.90;;;;;;5040127;28;20186;-35
2023/06/02 03:13:12;;;;;;;6.80;4.60;;;14.30;99.90;;;;;;5034605;28;20177;-36
2023/06/02 03:15:39;;;;;;;6.87;4.57;;;14.20;99.90;;;;;;5024582;28;20257;-39
2023/06/02 03:18:05;;;;;;;6.67;4.97;;;14.10;99.90;;;;;;5031153;28;20186;-36
2023/06/02 03:20:32;;;;;;;5.63;4.27;;;14.00;99.90;;;;;;5028313;28;20188;-39
2023/06/02 03:22:58;;;;;;;5.23;4.47;;;14.00;99.90;;;;;;5043328;28;20180;-38
2023/06/02 03:25:24;;;;;;;4.90;4.30;;;14.00;99.90;;;;;;5050675;28;20213;-37
2023/06/02 03:27:52;;;;;;;6.97;4.63;;;13.90;99.90;;;;;;5034350;28;20195;-37
2023/06/02 03:30:20;;;;;;;5.90;4.70;;;13.80;99.90;;;;;;5026009;28;20218;-37
2023/06/02 03:32:47;;;;;;;6.50;4.97;;;13.80;99.90;;;;;;5042248;28;20207;-35
2023/06/02 03:35:12;;;;;;;6.40;4.70;;;13.70;99.90;;;;;;5030771;28;20204;-38
2023/06/02 03:37:40;;;;;;;6.83;5.00;;;13.60;99.90;;;;;;5032310;28;20719;-39
2023/06/02 03:40:08;;;;;;;8.43;5.30;;;13.50;99.90;;;;;;5034174;28;20174;-40
2023/06/02 03:42:35;;;;;;;8.53;5.47;;;13.40;99.90;;;;;;5018020;28;20233;-38
2023/06/02 03:45:04;;;;;;;6.03;4.90;;;13.30;99.90;;;;;;5050472;28;20211;-39
2023/06/02 03:47:30;;;;;;;6.43;4.33;;;13.30;99.90;;;;;;5042120;28;20181;-35
2023/06/02 03:49:57;;;;;;;7.90;5.10;;;13.30;99.90;;;;;;5031344;28;20184;-37
2023/06/02 03:52:24;;;;;;;6.00;4.90;;;13.30;99.90;;;;;;5018238;28;20195;-38
2023/06/02 03:54:52;;;;;;;5.67;4.60;;;13.20;99.90;;;;;;5033974;28;20258;-38
2023/06/02 03:57:19;;;;;;;6.30;5.03;;;13.30;99.90;;;;;;5026951;28;20659;-36
2023/06/02 03:59:44;;;;;;;7.70;5.33;;;13.20;99.90;;;;;;5032525;28;20179;-38
2023/06/02 04:02:10;;;;;;;6.93;4.80;;;13.30;99.90;;;;;;5027819;28;20184;-37
2023/06/02 04:04:37;;;;;;;6.83;5.00;;;13.30;99.90;;;;;;5038412;28;20207;-36
2023/06/02 04:07:03;;;;;;;6.60;5.17;;;13.30;99.90;;;;;;5013980;28;20185;-39
2023/06/02 04:09:30;;;;;;;7.83;5.40;;;13.20;99.90;;;;;;5026872;28;20179;-36
2023/06/02 04:11:56;;;;;;;5.97;5.10;;;13.20;99.90;;;;;;5041770;28;20255;-38
2023/06/02 04:14:22;;;;;;;5.77;5.03;;;13.20;99.90;;;;;;5041705;28;20710;-39
2023/06/02 04:16:49;;;;;;;7.00;5.03;;;13.20;99.90;;;;;;5030737;28;20244;-37
2023/06/02 04:19:17;;;;;;;5.60;5.00;;;13.20;99.90;;;;;;5028548;28;20206;-38
2023/06/02 04:21:43;;;;;;;6.53;5.20;;;13.20;99.90;;;;;;5048008;28;20191;-38
2023/06/02 04:24:10;;;;;;;7.17;5.30;;;13.20;99.90;;;;;;5040379;28;20206;-38
2023/06/02 04:26:36;;;;;;;6.73;5.80;;;13.30;99.90;;;;;;5044565;28;20194;-39
2023/06/02 04:29:02;;;;;;;6.67;4.93;;;13.30;99.90;;;;;;5039079;28;20268;-38
2023/06/02 04:31:42;;;;;;;7.70;5.37;;;13.30;99.90;;;;;;5026185;28;20182;-36
2023/06/02 04:34:12;;;;;;;7.07;5.47;;;13.30;99.90;;;;;;5043280;28;20582;-37
2023/06/02 04:36:39;;;;;;;5.80;5.20;;;13.40;99.90;;;;;;5032865;28;20189;-38
2023/06/02 04:39:07;;;;;;;6.83;5.73;;;13.50;99.90;;;;;;5033446;28;20165;-38
2023/06/02 04:41:34;;;;;;;8.10;5.33;;;13.60;99.90;;;;;;5041167;28;20171;-41
2023/06/02 04:44:00;;;;;;;6.33;4.67;;;13.70;99.90;;;;;;5049390;28;20223;-39
2023/06/02 04:46:27;;;;;;;6.83;5.00;;;13.80;99.90;;;;;;5049802;28;20182;-41
2023/06/02 04:48:54;;;;;;;7.00;4.90;;;13.80;99.90;;;;;;5049779;28;20196;-39
2023/06/02 04:51:29;;;;;;;7.20;5.37;;;13.80;99.90;;;;;;5033137;28;20191;-37
2023/06/02 04:53:56;;;;;;;6.53;5.53;;;13.90;99.90;;;;;;5060494;28;20206;-39
2023/06/02 04:56:25;;;;;;;6.70;5.33;;;14.00;99.90;;;;;;5054157;28;20175;-39
2023/06/02 04:58:51;;;;;;;8.03;5.17;;;14.10;99.90;;;;;;5032950;28;20187;-37
2023/06/02 05:01:17;;;;;;;6.97;5.03;;;14.10;99.90;;;;;;5032836;28;20190;-37
2023/06/02 05:03:43;;;;;;;8.10;5.50;;;14.20;99.90;;;;;;5032762;28;20207;-39
2023/06/02 05:06:10;;;;;;;6.03;5.43;;;14.10;99.90;;;;;;5033355;28;20185;-39
2023/06/02 05:08:36;;;;;;;10.67;5.83;;;14.20;99.90;;;;;;5029643;28;20196;-38
2023/06/02 05:11:02;;;;;;;6.73;5.47;;;14.20;99.90;;;;;;5037164;28;20188;-37
2023/06/02 05:13:29;;;;;;;6.50;5.17;;;14.20;99.90;;;;;;5036874;28;20205;-39
2023/06/02 05:15:56;;;;;;;7.60;5.13;;;14.30;99.90;;;;;;5031978;28;20219;-39
2023/06/02 05:18:23;;;;;;;8.03;5.63;;;14.30;99.90;;;;;;5032862;28;20181;-39
2023/06/02 05:20:52;;;;;;;8.60;5.60;;;14.20;99.90;;;;;;5015765;28;20186;-35
2023/06/02 05:23:18;;;;;;;7.53;5.77;;;14.30;99.90;;;;;;5051867;28;20195;-40
2023/06/02 05:25:44;;;;;;;6.53;5.83;;;14.40;99.90;;;;;;5040782;28;20193;-35
2023/06/02 05:28:10;;;;;;;8.23;5.77;;;14.60;99.90;;;;;;5032621;28;20235;-36
2023/06/02 05:30:36;;;;;;;7.63;5.87;;;14.70;99.90;;;;;;5049257;28;20196;-35
2023/06/02 05:33:02;;;;;;;7.27;5.73;;;14.90;99.90;;;;;;5025679;28;20193;-38
2023/06/02 05:35:28;;;;;;;7.00;6.13;;;15.00;99.90;;;;;;5052046;28;20659;-36
2023/06/02 05:37:54;;;;;;;8.87;6.33;;;15.10;99.90;;;;;;5035488;28;20186;-39
2023/06/02 05:40:20;;;;;;;8.87;6.17;;;15.20;99.90;;;;;;5054231;28;20174;-37
2023/06/02 05:42:46;;;;;;;8.33;6.37;;;15.40;99.90;;;;;;5053177;28;20190;-38
2023/06/02 05:45:14;;;;;;;10.03;6.27;;;15.50;99.90;;;;;;5036219;28;20244;-41
2023/06/02 05:47:42;;;;;;;9.53;6.13;;;15.70;99.90;;;;;;5036577;28;20259;-38
2023/06/02 05:50:08;;;;;;;8.30;6.30;;;15.80;99.90;;;;;;5032636;28;20218;-40
2023/06/02 05:52:34;;;;;;;8.20;6.53;;;15.90;99.90;;;;;;5035710;28;20183;-39
2023/06/02 05:55:00;;;;;;;7.40;6.33;;;16.00;99.90;;;;;;5052172;28;20293;-39
2023/06/02 05:57:26;;;;;;;11.37;7.33;;;16.00;99.90;;;;;;5032553;28;20181;-39
2023/06/02 05:59:53;;;;;;;7.87;6.77;;;16.20;99.90;;;;;;5035958;28;20182;-37
2023/06/02 06:02:19;;;;;;;9.17;6.60;;;16.30;99.90;;;;;;5052215;28;20247;-41
2023/06/02 06:04:45;;;;;;;8.40;6.47;;;16.40;99.90;;;;;;5035385;28;20205;-33
2023/06/02 06:07:11;;;;;;;9.67;6.20;;;16.60;99.90;;;;;;5032500;28;20187;-40
2023/06/02 06:09:36;;;;;;;9.73;6.43;;;16.70;99.90;;;;;;5016248;28;20274;-36
2023/06/02 06:12:04;;;;;;;7.83;6.20;;;16.80;99.90;;;;;;5036070;28;20178;-39
2023/06/02 06:14:30;;;;;;;7.97;6.57;;;16.90;99.90;;;;;;5028488;28;20206;-37
2023/06/02 06:16:56;;;;;;;9.57;6.70;;;17.00;99.90;;;;;;5043818;28;20214;-39
2023/06/02 06:19:22;;;;;;;6.87;6.07;;;17.20;99.90;;;;;;5032776;28;20210;-37
2023/06/02 06:21:48;;;;;;;9.43;6.70;;;17.30;99.90;;;;;;5051312;28;20228;-39
2023/06/02 06:24:13;;;;;;;9.17;7.30;;;17.50;99.90;;;;;;5042732;28;20209;-36
2023/06/02 06:26:40;;;;;;;8.13;6.40;;;17.60;99.90;;;;;;5035460;28;20293;-40
2023/06/02 06:29:06;;;;;;;9.47;6.97;;;17.50;99.90;;;;;;5051940;28;20475;-37
2023/06/02 06:31:33;;;;;;;9.27;6.80;;;17.60;99.90;;;;;;5051794;28;20181;-37
2023/06/02 06:33:59;;;;;;;11.57;6.87;;;17.80;99.90;;;;;;5051886;28;20222;-40
2023/06/02 06:36:25;;;;;;;10.27;6.90;;;17.90;99.90;;;;;;5034572;28;20181;-38
2023/06/02 06:38:51;;;;;;;7.90;6.57;;;18.10;99.90;;;;;;5050319;28;20178;-38
2023/06/02 06:41:18;;;;;;;9.70;7.05;;;18.30;99.90;;;;;;5052029;28;20177;-41
2023/06/02 06:43:44;;;;;;;11.25;6.70;;;18.50;99.90;;;;;;5034018;28;20237;-41
2023/06/02 06:46:17;;;;;;;8.35;6.05;;;18.60;99.90;;;;;;5036770;28;20220;-39
2023/06/02 06:48:43;;;;;;;7.38;6.32;;;18.70;99.90;;;;;;5051650;28;20228;-40
2023/06/02 06:51:09;;;;;;;7.78;6.32;;;18.80;99.90;;;;;;5051421;28;20193;-38
2023/06/02 06:53:35;;;;;;;7.63;6.68;;;18.80;99.90;;;;;;5055938;28;20210;-40
2023/06/02 06:56:02;;;;;;;7.82;6.18;;;18.90;99.90;;;;;;5051425;28;20213;-43
2023/06/02 06:58:29;;;;;;;7.50;6.32;;;19.00;99.90;;;;;;5053060;28;20181;-40
2023/06/02 07:00:55;;;;;;;9.18;6.47;;;19.10;99.90;;;;;;5026467;28;20188;-38
2023/06/02 07:03:20;;;;;;;10.55;6.63;;;19.10;99.90;;;;;;5052637;28;20170;-40
2023/06/02 07:05:47;;;;;;;12.15;6.60;;;19.10;99.90;;;;;;5043561;28;20183;-38
2023/06/02 07:08:13;;;;;;;10.20;7.20;;;19.30;99.90;;;;;;5035934;28;20193;-39
2023/06/02 07:10:39;;;;;;;9.70;6.82;;;19.30;99.90;;;;;;5052675;28;20204;-39
2023/06/02 07:13:06;;;;;;;7.43;6.15;;;19.10;99.90;;;;;;5051262;28;20232;-41
2023/06/02 07:15:32;;;;;;;10.38;6.68;;;19.30;99.90;;;;;;5050626;28;20213;-41
2023/06/02 07:17:57;;;;;;;7.80;7.00;;;19.50;99.90;;;;;;5038249;28;20221;-39
2023/06/02 07:20:23;;;;;;;9.82;6.57;;;19.60;99.90;;;;;;5034342;28;20186;-39
2023/06/02 07:22:49;;;;;;;8.18;6.95;;;19.60;99.90;;;;;;5034231;28;20224;-42
2023/06/02 07:25:15;;;;;;;9.85;6.47;;;19.70;99.90;;;;;;5034253;28;20206;-39
2023/06/02 07:27:41;;;;;;;9.25;7.18;;;19.70;99.90;;;;;;5051259;28;20246;-37
2023/06/02 07:30:08;;;;;;;9.15;5.95;;;19.70;99.90;;;;;;5030604;28;20191;-41
2023/06/02 07:32:33;;;;;;;11.68;6.95;;;19.80;99.90;;;;;;5030589;28;20653;-38
2023/06/02 07:34:59;;;;;;;11.57;7.15;;;19.90;99.90;;;;;;5041563;28;20210;-39
2023/06/02 07:37:25;;;;;;;10.43;7.20;;;19.80;99.90;;;;;;5034010;28;20204;-39
2023/06/02 07:39:51;;;;;;;8.90;7.10;;;19.90;99.90;;;;;;5034198;28;20327;-41
2023/06/02 07:42:20;;;;;;;9.65;7.13;;;20.10;99.90;;;;;;5045952;28;20193;-39
2023/06/02 07:44:46;;;;;;;9.48;6.70;;;20.30;99.90;;;;;;5039166;28;20260;-37
2023/06/02 07:47:11;;;;;;;11.38;6.95;;;20.40;99.90;;;;;;5050603;28;20205;-41
2023/06/02 07:49:37;;;;;;;8.43;6.53;;;20.50;99.90;;;;;;5052091;28;20641;-41
2023/06/02 07:52:03;;;;;;;9.68;6.70;;;20.50;99.90;;;;;;5053853;28;20211;-41
2023/06/02 07:54:29;;;;;;;7.75;6.95;;;20.60;99.90;;;;;;5050714;28;20205;-39
2023/06/02 07:56:55;;;;;;;7.22;5.97;;;20.80;99.90;;;;;;5049716;28;20640;-41
2023/06/02 07:59:23;;;;;;;8.40;6.10;;;20.90;99.90;;;;;;5050377;28;20252;-36
2023/06/02 08:01:49;;;;;;;7.60;6.47;;;21.00;99.90;;;;;;5030850;28;20183;-38
2023/06/02 08:04:14;;;;;;;10.52;6.35;;;21.00;99.90;;;;;;5051505;28;20209;-40
2023/06/02 08:06:40;;;;;;;10.23;6.55;;;21.00;99.90;;;;;;5050090;28;20200;-41
2023/06/02 08:09:06;;;;;;;6.82;6.13;;;21.20;99.90;;;;;;5041100;28;20215;-42
2023/06/02 08:11:32;;;;;;;8.25;6.95;;;21.30;99.90;;;;;;5050348;28;20219;-38
2023/06/02 08:13:58;;;;;;;8.05;6.13;;;21.50;99.90;;;;;;5049772;28;20205;-39
2023/06/02 08:16:24;;;;;;;8.73;6.43;;;21.70;99.90;;;;;;5025548;28;20264;-37
2023/06/02 08:18:50;;;;;;;7.88;6.40;;;21.80;99.90;;;;;;5032565;28;20181;-39
2023/06/02 08:21:16;;;;;;;7.10;6.38;;;21.90;99.90;;;;;;5042605;28;20186;-41
2023/06/02 08:23:42;;;;;;;7.90;6.45;;;22.10;99.90;;;;;;5041778;28;20204;-43
2023/06/02 08:26:08;;;;;;;7.80;6.13;;;22.20;99.90;;;;;;5041151;28;20182;-40
2023/06/02 08:28:34;;;;;;;9.32;6.70;;;22.20;99.90;;;;;;5018768;28;20217;-41
2023/06/02 08:31:00;;;;;;;7.60;6.35;;;22.30;99.90;;;;;;5041397;28;20178;-39
2023/06/02 08:33:27;;;;;;;7.47;6.38;;;22.40;99.90;;;;;;5041425;28;20198;-41
2023/06/02 08:35:53;;;;;;;9.27;7.63;;;22.60;99.90;;;;;;5032379;28;20210;-38
2023/06/02 08:38:22;;;;;;;9.02;6.78;;;22.50;99.90;;;;;;5043921;28;20193;-37
2023/06/02 08:40:48;;;;;;;9.60;6.15;;;22.40;99.90;;;;;;5049897;28;20207;-42
2023/06/02 08:43:15;;;;;;;9.00;6.68;;;22.60;99.90;;;;;;5029504;28;20186;-39
2023/06/02 08:45:46;;;;;;;8.82;7.00;;;22.50;99.90;;;;;;5013572;28;20642;-41
2023/06/02 08:48:17;;;;;;;9.05;6.13;;;22.70;99.90;;;;;;5022066;28;20190;-41
2023/06/02 08:50:51;;;;;;;10.95;6.03;;;22.70;99.90;;;;;;5031673;28;20167;-41
2023/06/02 08:53:16;;;;;;;8.73;7.07;;;22.80;99.90;;;;;;5041365;28;20208;-42
2023/06/02 08:55:43;;;;;;;8.38;6.30;;;23.00;99.90;;;;;;5052314;28;20227;-41
2023/06/02 08:58:10;;;;;;;7.95;6.05;;;23.00;99.90;;;;;;5051204;28;20239;-41
2023/06/02 09:00:38;;;;;;;6.50;5.90;;;23.20;99.90;;;;;;5041056;28;20189;-41
2023/06/02 09:03:04;;;;;;;7.47;6.03;;;23.50;99.90;;;;;;5049500;28;20178;-41
2023/06/02 09:05:34;;;;;;;8.05;6.32;;;23.70;99.90;;;;;;5032933;28;20244;-40
2023/06/02 09:08:14;;;;;;;7.20;6.20;;;23.90;99.90;;;;;;5052309;28;20185;-41
2023/06/02 09:10:42;;;;;;;11.50;6.50;;;23.70;99.90;;;;;;5054877;28;20182;-42
2023/06/02 09:13:07;;;;;;;6.22;5.63;;;23.90;99.90;;;;;;5053616;28;20181;-42
2023/06/02 09:15:35;;;;;;;7.78;6.47;;;23.90;99.90;;;;;;5038954;28;20210;-39
2023/06/02 09:18:15;;;;;;;7.80;6.40;;;24.10;99.90;;;;;;5025315;28;20288;-42
2023/06/02 09:20:41;;;;;;;7.32;6.15;;;24.40;99.90;;;;;;5033561;28;20171;-41
2023/06/02 09:23:07;;;;;;;6.95;6.25;;;24.40;99.90;;;;;;5055252;28;20209;-41
2023/06/02 09:25:35;;;;;;;6.97;6.07;;;24.50;99.90;;;;;;5058885;28;20273;-41
2023/06/02 09:28:01;;;;;;;8.90;7.18;;;24.60;99.90;;;;;;5036303;28;20190;-38
2023/06/02 09:30:28;;;;;;;7.60;6.13;;;24.70;99.90;;;;;;5035130;28;20182;-41
2023/06/02 09:32:55;;;;;;;7.78;6.25;;;24.70;99.90;;;;;;5030631;28;20284;-41
2023/06/02 09:35:41;;;;;;;6.82;6.00;;;24.50;99.90;;;;;;5053158;28;20213;-41
2023/06/02 09:38:12;;;;;;;7.30;5.90;;;24.50;99.90;;;;;;5028288;28;20190;-41
2023/06/02 09:40:40;;;;;;;6.93;6.03;;;24.70;99.90;;;;;;5048094;28;20218;-41
2023/06/02 09:43:07;;;;;;;7.07;5.93;;;24.80;99.90;;;;;;5043203;28;20186;-41
2023/06/02 09:45:48;;;;;;;7.90;6.00;;;24.90;99.90;;;;;;5053132;28;20186;-38
2023/06/02 09:48:18;;;;;;;7.93;6.30;;;25.10;99.90;;;;;;5054262;28;20181;-41
2023/06/02 09:50:44;;;;;;;6.05;5.20;;;25.10;99.90;;;;;;5036058;28;20189;-42
2023/06/02 09:53:11;;;;;;;6.32;5.65;;;25.30;99.90;;;;;;5057393;28;20371;-41
2023/06/02 09:55:38;;;;;;;9.23;5.63;;;25.40;99.90;;;;;;5035879;28;20209;-40
2023/06/02 09:58:04;;;;;;;6.55;5.53;;;25.60;99.90;;;;;;5052643;28;20178;-41
2023/06/02 10:00:31;;;;;;;6.63;5.47;;;25.70;99.90;;;;;;5035991;28;20226;-40
2023/06/02 10:03:00;;;;;;;6.93;5.47;;;25.70;99.90;;;;;;5035796;28;20178;-41
2023/06/02 10:05:28;;;;;;;8.75;5.95;;;25.90;99.90;;;;;;5035636;28;20228;-42
2023/06/02 10:08:23;;;;;;;7.25;5.85;;;26.00;99.90;;;;;;5045571;28;20177;-41
2023/06/02 10:11:05;;;;;;;6.15;5.50;;;26.20;99.90;;;;;;5041586;28;20277;-42
2023/06/02 10:13:43;;;;;;;8.38;5.72;;;26.20;99.90;;;;;;5034279;28;20348;-37
2023/06/02 10:16:48;;;;;;;6.38;5.78;;;26.40;99.90;;;;;;5032437;28;20221;-41
2023/06/02 10:19:44;;;;;;;8.70;5.53;;;26.50;99.90;;;;;;5034296;28;20205;-40
2023/06/02 10:22:56;;;;;;;6.72;5.80;;;26.10;99.90;;;;;;5051097;28;20221;-41
2023/06/02 10:25:46;;;;;;;6.90;6.07;;;26.30;99.90;;;;;;5059998;28;20205;-41
2023/06/02 10:28:13;;;;;;;6.57;5.45;;;26.40;99.90;;;;;;5043897;28;20193;-42
2023/06/02 10:30:39;;;;;;;6.53;5.93;;;26.50;99.90;;;;;;5052033;28;20194;-41
2023/06/02 10:33:06;;;;;;;6.25;5.65;;;26.50;99.90;;;;;;5051974;28;20208;-42
2023/06/02 10:35:58;;;;;;;5.55;5.05;;;26.50;99.90;;;;;;5021846;28;20313;-42
2023/06/02 10:38:36;;;;;;;5.55;4.88;;;26.70;99.90;;;;;;5027614;28;20178;-42
2023/06/02 10:41:01;;;;;;;6.53;5.50;;;26.60;99.90;;;;;;5017765;28;20281;-41
2023/06/02 10:43:27;;;;;;;5.43;4.88;;;26.70;99.90;;;;;;5031915;28;20293;-36
2023/06/02 10:46:13;;;;;;;5.78;5.18;;;26.90;99.90;;;;;;5048171;28;20215;-40
2023/06/02 10:48:42;;;;;;;7.18;5.40;;;26.90;99.90;;;;;;5035066;28;20189;-41
2023/06/02 10:51:10;;;;;;;9.93;6.22;;;26.80;99.90;;;;;;5033166;28;20244;-40
2023/06/02 10:54:07;;;;;;;5.90;5.28;;;26.70;99.90;;;;;;5033984;28;20208;-42
2023/06/02 10:56:43;;;;;;;6.75;5.35;;;26.80;99.90;;;;;;5025477;28;20190;-38
2023/06/02 10:59:10;;;;;;;9.10;6.13;;;27.00;99.90;;;;;;5051370;28;20182;-40
2023/06/02 11:01:51;;;;;;;5.68;5.18;;;26.60;99.90;;;;;;5051459;28;20171;-41
2023/06/02 11:04:23;;;;;;;5.60;4.97;;;26.50;99.90;;;;;;5051262;28;20205;-40
2023/06/02 11:07:09;;;;;;;6.18;5.55;;;26.70;99.90;;;;;;5051475;28;20174;-42
2023/06/02 11:09:35;;;;;;;7.13;5.63;;;26.60;99.90;;;;;;5031514;28;20264;-41
2023/06/02 11:12:01;;;;;;;5.35;4.90;;;26.90;99.90;;;;;;5033530;28;20217;-42
2023/06/02 11:14:27;;;;;;;5.60;5.10;;;27.10;99.90;;;;;;5026622;28;20217;-42
2023/06/02 11:17:28;;;;;;;6.57;5.47;;;27.00;99.90;;;;;;5031166;28;20182;-40
2023/06/02 11:19:54;;;;;;;5.85;5.25;;;27.10;99.90;;;;;;5032675;28;20209;-41
2023/06/02 11:22:20;;;;;;;5.13;4.63;;;27.10;99.90;;;;;;5035434;28;20291;-41
2023/06/02 11:24:47;;;;;;;5.28;4.72;;;27.20;99.90;;;;;;5049403;28;20683;-39
2023/06/02 11:27:13;;;;;;;5.43;4.88;;;27.30;99.90;;;;;;5047611;28;20217;-40
2023/06/02 11:29:39;;;;;;;7.05;5.50;;;27.50;99.90;;;;;;5041615;28;20226;-39
2023/06/02 11:32:06;;;;;;;7.80;5.65;;;27.20;99.90;;;;;;5027792;28;20190;-39
2023/06/02 11:34:32;;;;;;;7.57;5.22;;;27.10;99.90;;;;;;5050573;28;20270;-41
2023/06/02 11:37:12;;;;;;;8.15;5.45;;;27.00;99.90;;;;;;5050888;28;20269;-45
2023/06/02 11:39:55;;;;;;;6.43;5.45;;;27.00;99.90;;;;;;5028807;28;20187;-42
2023/06/02 11:42:31;;;;;;;5.68;5.10;;;27.00;99.90;;;;;;5042161;28;20190;-43
2023/06/02 11:44:57;;;;;;;6.05;5.18;;;27.30;99.90;;;;;;5026026;28;20240;-42
2023/06/02 11:47:23;;;;;;;6.22;4.97;;;27.30;99.90;;;;;;5034324;28;20178;-42
2023/06/02 11:49:48;;;;;;;5.90;4.65;;;27.30;99.90;;;;;;5026303;28;20216;-40
2023/06/02 11:52:14;;;;;;;5.50;4.85;;;27.40;99.90;;;;;;5047901;28;20181;-40
2023/06/02 11:54:50;;;;;;;6.03;5.00;;;27.70;99.90;;;;;;5041835;28;20225;-42
2023/06/02 11:57:45;;;;;;;7.18;5.50;;;27.90;99.90;;;;;;5050478;28;20213;-41
2023/06/02 12:00:15;;;;;;;5.63;5.05;;;28.10;99.90;;;;;;5026717;28;20190;-41
2023/06/02 12:02:52;;;;;;;6.03;5.38;;;28.10;99.90;;;;;;5044528;28;20182;-39
2023/06/02 12:05:29;;;;;;;5.88;4.95;;;28.20;99.90;;;;;;5025393;28;20209;-39
2023/06/02 12:07:56;;;;;;;5.40;4.82;;;28.30;99.90;;;;;;5042113;28;20585;-41
2023/06/02 12:10:30;;;;;;;6.65;5.38;;;28.40;99.80;;;;;;5034073;28;20177;-40
2023/06/02 12:12:56;;;;;;;6.35;5.13;;;28.60;99.10;;;;;;5033645;28;20189;-41
2023/06/02 12:15:22;;;;;;;5.28;4.70;;;28.70;99.10;;;;;;5033653;28;20235;-39
2023/06/02 12:17:48;;;;;;;5.45;5.00;;;28.50;98.90;;;;;;5050335;28;20181;-43
2023/06/02 12:20:14;;;;;;;5.93;5.32;;;28.50;99.10;;;;;;5047054;28;20236;-43
2023/06/02 12:22:53;;;;;;;5.68;4.90;;;28.00;99.00;;;;;;5055819;28;20185;-42
2023/06/02 12:25:20;;;;;;;5.75;5.20;;;28.10;99.30;;;;;;5042382;28;20304;-40
2023/06/02 12:27:47;;;;;;;6.32;4.97;;;28.20;98.50;;;;;;5041380;28;20243;-40
2023/06/02 12:30:16;;;;;;;5.35;4.85;;;28.20;97.90;;;;;;5031889;28;20269;-39
2023/06/02 12:32:42;;;;;;;5.40;4.90;;;27.80;98.70;;;;;;5013561;28;20225;-42
2023/06/02 12:35:08;;;;;;;6.35;5.40;;;27.70;99.20;;;;;;5028591;28;20271;-41
2023/06/02 12:37:34;;;;;;;5.50;4.90;;;27.90;99.90;;;;;;5033583;28;20174;-41
2023/06/02 12:40:00;;;;;;;6.07;5.40;;;28.10;98.90;;;;;;5033388;28;20186;-39
2023/06/02 12:42:25;;;;;;;7.80;4.72;;;28.50;98.90;;;;;;5049334;28;20184;-41
2023/06/02 12:44:53;;;;;;;5.43;4.93;;;28.70;98.70;;;;;;5044208;28;20241;-42
2023/06/02 12:47:19;;;;;;;6.78;4.93;;;28.60;98.60;;;;;;5013923;28;20179;-44
2023/06/02 12:49:47;;;;;;;5.75;5.25;;;28.70;97.60;;;;;;5044181;28;20193;-43
2023/06/02 12:52:16;;;;;;;7.40;4.80;;;28.20;97.90;;;;;;5055696;28;20189;-41